sensor_id;sensor_type;location;lat;lon;timestamp;P1;durP1;ratioP1;P2;durP2;ratioP2
23712;SDS011;12035;49.978;8.298;2022-08-21T00:03:40;4.45;;;1.73;;
23712;SDS011;12035;49.978;8.298;2022-08-21T00:08:39;4.93;;;1.77;;
23712;SDS011;12035;49.978;8.298;2022-08-21T00:13:36;5.63;;;2.03;;
23712;SDS011;12035;49.978;8.298;2022-08-21T00:18:37;4.72;;;1.73;;
23712;SDS011;12035;49.978;8.298;2022-08-21T00:23:34;5.32;;;1.80;;
23712;SDS011;12035;49.978;8.298;2022-08-21T00:28:33;6.55;;;2.00;;
23712;SDS011;12035;49.978;8.298;2022-08-21T00:33:31;5.60;;;1.80;;
23712;SDS011;12035;49.978;8.298;2022-08-21T00:38:28;4.85;;;1.70;;
23712;SDS011;12035;49.978;8.298;2022-08-21T00:43:26;6.03;;;1.88;;
23712;SDS011;12035;49.978;8.298;2022-08-21T00:48:29;6.40;;;1.90;;
23712;SDS011;12035;49.978;8.298;2022-08-21T00:53:27;6.93;;;1.77;;
23712;SDS011;12035;49.978;8.298;2022-08-21T00:58:26;3.97;;;1.98;;
23712;SDS011;12035;49.978;8.298;2022-08-21T01:03:26;4.53;;;1.83;;
23712;SDS011;12035;49.978;8.298;2022-08-21T01:08:25;4.60;;;1.92;;
23712;SDS011;12035;49.978;8.298;2022-08-21T01:13:25;4.63;;;1.83;;
23712;SDS011;12035;49.978;8.298;2022-08-21T01:18:24;3.58;;;1.65;;
23712;SDS011;12035;49.978;8.298;2022-08-21T01:23:23;3.08;;;1.60;;
23712;SDS011;12035;49.978;8.298;2022-08-21T01:28:20;3.90;;;1.48;;
23712;SDS011;12035;49.978;8.298;2022-08-21T01:33:18;6.35;;;1.83;;
23712;SDS011;12035;49.978;8.298;2022-08-21T01:38:19;4.03;;;1.83;;
23712;SDS011;12035;49.978;8.298;2022-08-21T01:43:19;7.43;;;1.60;;
23712;SDS011;12035;49.978;8.298;2022-08-21T01:48:16;7.22;;;2.20;;
23712;SDS011;12035;49.978;8.298;2022-08-21T01:53:13;3.53;;;1.67;;
23712;SDS011;12035;49.978;8.298;2022-08-21T01:58:11;4.40;;;1.85;;
23712;SDS011;12035;49.978;8.298;2022-08-21T02:03:09;4.10;;;1.73;;
23712;SDS011;12035;49.978;8.298;2022-08-21T02:08:07;3.15;;;1.55;;
23712;SDS011;12035;49.978;8.298;2022-08-21T02:13:04;6.72;;;1.77;;
23712;SDS011;12035;49.978;8.298;2022-08-21T02:18:02;4.15;;;1.50;;
23712;SDS011;12035;49.978;8.298;2022-08-21T02:23:03;4.28;;;1.80;;
23712;SDS011;12035;49.978;8.298;2022-08-21T02:28:03;6.35;;;1.85;;
23712;SDS011;12035;49.978;8.298;2022-08-21T02:33:03;4.20;;;1.70;;
23712;SDS011;12035;49.978;8.298;2022-08-21T02:38:07;4.47;;;1.85;;
23712;SDS011;12035;49.978;8.298;2022-08-21T02:43:07;4.60;;;1.67;;
23712;SDS011;12035;49.978;8.298;2022-08-21T02:48:05;4.32;;;1.40;;
23712;SDS011;12035;49.978;8.298;2022-08-21T02:53:08;4.57;;;1.60;;
23712;SDS011;12035;49.978;8.298;2022-08-21T02:58:11;4.80;;;1.80;;
23712;SDS011;12035;49.978;8.298;2022-08-21T03:03:10;4.18;;;2.15;;
23712;SDS011;12035;49.978;8.298;2022-08-21T03:08:11;3.45;;;1.67;;
23712;SDS011;12035;49.978;8.298;2022-08-21T03:13:10;6.43;;;1.88;;
23712;SDS011;12035;49.978;8.298;2022-08-21T03:18:08;5.72;;;2.25;;
23712;SDS011;12035;49.978;8.298;2022-08-21T03:23:06;5.95;;;2.17;;
23712;SDS011;12035;49.978;8.298;2022-08-21T03:28:08;6.90;;;2.03;;
23712;SDS011;12035;49.978;8.298;2022-08-21T03:33:08;5.03;;;1.60;;
23712;SDS011;12035;49.978;8.298;2022-08-21T03:38:05;5.65;;;2.10;;
23712;SDS011;12035;49.978;8.298;2022-08-21T03:43:03;5.05;;;1.83;;
23712;SDS011;12035;49.978;8.298;2022-08-21T03:48:06;7.65;;;2.22;;
23712;SDS011;12035;49.978;8.298;2022-08-21T03:53:05;4.75;;;1.60;;
23712;SDS011;12035;49.978;8.298;2022-08-21T03:58:02;4.68;;;1.75;;
23712;SDS011;12035;49.978;8.298;2022-08-21T04:03:00;3.33;;;1.60;;
23712;SDS011;12035;49.978;8.298;2022-08-21T04:07:59;6.55;;;1.65;;
23712;SDS011;12035;49.978;8.298;2022-08-21T04:12:59;4.57;;;1.90;;
23712;SDS011;12035;49.978;8.298;2022-08-21T04:17:56;5.22;;;1.65;;
23712;SDS011;12035;49.978;8.298;2022-08-21T04:22:54;8.73;;;1.98;;
23712;SDS011;12035;49.978;8.298;2022-08-21T04:27:52;5.03;;;1.63;;
23712;SDS011;12035;49.978;8.298;2022-08-21T04:32:50;5.45;;;1.80;;
23712;SDS011;12035;49.978;8.298;2022-08-21T04:37:47;6.30;;;1.92;;
23712;SDS011;12035;49.978;8.298;2022-08-21T04:42:45;4.18;;;1.70;;
23712;SDS011;12035;49.978;8.298;2022-08-21T04:47:46;6.50;;;2.20;;
23712;SDS011;12035;49.978;8.298;2022-08-21T04:52:45;7.63;;;2.20;;
23712;SDS011;12035;49.978;8.298;2022-08-21T04:57:43;6.47;;;1.92;;
23712;SDS011;12035;49.978;8.298;2022-08-21T05:02:41;4.65;;;1.83;;
23712;SDS011;12035;49.978;8.298;2022-08-21T05:07:40;6.18;;;1.90;;
23712;SDS011;12035;49.978;8.298;2022-08-21T05:12:40;4.88;;;1.83;;
23712;SDS011;12035;49.978;8.298;2022-08-21T05:17:38;3.88;;;1.88;;
23712;SDS011;12035;49.978;8.298;2022-08-21T05:22:35;4.85;;;2.03;;
23712;SDS011;12035;49.978;8.298;2022-08-21T05:27:34;4.53;;;1.80;;
23712;SDS011;12035;49.978;8.298;2022-08-21T05:32:31;3.65;;;1.65;;
23712;SDS011;12035;49.978;8.298;2022-08-21T05:37:28;4.35;;;1.75;;
23712;SDS011;12035;49.978;8.298;2022-08-21T05:42:25;3.70;;;1.65;;
23712;SDS011;12035;49.978;8.298;2022-08-21T05:47:24;5.93;;;2.20;;
23712;SDS011;12035;49.978;8.298;2022-08-21T05:52:22;5.10;;;1.98;;
23712;SDS011;12035;49.978;8.298;2022-08-21T05:57:19;6.00;;;2.05;;
23712;SDS011;12035;49.978;8.298;2022-08-21T06:02:16;4.63;;;1.67;;
23712;SDS011;12035;49.978;8.298;2022-08-21T06:07:15;4.93;;;1.95;;
23712;SDS011;12035;49.978;8.298;2022-08-21T06:12:13;4.15;;;1.75;;
23712;SDS011;12035;49.978;8.298;2022-08-21T06:17:11;5.43;;;2.00;;
23712;SDS011;12035;49.978;8.298;2022-08-21T06:22:09;5.07;;;2.10;;
23712;SDS011;12035;49.978;8.298;2022-08-21T06:27:09;6.28;;;1.92;;
23712;SDS011;12035;49.978;8.298;2022-08-21T06:32:06;4.30;;;1.70;;
23712;SDS011;12035;49.978;8.298;2022-08-21T06:37:07;3.65;;;1.80;;
23712;SDS011;12035;49.978;8.298;2022-08-21T06:42:05;3.80;;;2.05;;
23712;SDS011;12035;49.978;8.298;2022-08-21T06:47:04;4.45;;;1.83;;
23712;SDS011;12035;49.978;8.298;2022-08-21T06:52:01;3.80;;;1.98;;
23712;SDS011;12035;49.978;8.298;2022-08-21T06:56:59;5.80;;;2.10;;
23712;SDS011;12035;49.978;8.298;2022-08-21T07:01:57;3.00;;;1.67;;
23712;SDS011;12035;49.978;8.298;2022-08-21T07:06:56;4.00;;;2.00;;
23712;SDS011;12035;49.978;8.298;2022-08-21T07:11:54;4.90;;;2.10;;
23712;SDS011;12035;49.978;8.298;2022-08-21T07:16:52;4.47;;;1.92;;
23712;SDS011;12035;49.978;8.298;2022-08-21T07:21:49;6.90;;;2.40;;
23712;SDS011;12035;49.978;8.298;2022-08-21T07:26:55;6.23;;;2.33;;
23712;SDS011;12035;49.978;8.298;2022-08-21T07:31:52;5.00;;;2.42;;
23712;SDS011;12035;49.978;8.298;2022-08-21T07:36:49;4.05;;;2.22;;
23712;SDS011;12035;49.978;8.298;2022-08-21T07:41:47;4.32;;;2.25;;
23712;SDS011;12035;49.978;8.298;2022-08-21T07:46:45;7.20;;;2.80;;
23712;SDS011;12035;49.978;8.298;2022-08-21T07:51:42;5.68;;;2.90;;
23712;SDS011;12035;49.978;8.298;2022-08-21T07:56:39;4.38;;;2.80;;
23712;SDS011;12035;49.978;8.298;2022-08-21T08:01:36;5.25;;;2.47;;
23712;SDS011;12035;49.978;8.298;2022-08-21T08:06:35;7.97;;;2.55;;
23712;SDS011;12035;49.978;8.298;2022-08-21T08:11:32;4.78;;;2.40;;
23712;SDS011;12035;49.978;8.298;2022-08-21T08:16:29;7.97;;;3.00;;
23712;SDS011;12035;49.978;8.298;2022-08-21T08:21:26;6.18;;;2.65;;
23712;SDS011;12035;49.978;8.298;2022-08-21T08:26:25;7.35;;;2.85;;
23712;SDS011;12035;49.978;8.298;2022-08-21T08:31:22;4.97;;;2.65;;
23712;SDS011;12035;49.978;8.298;2022-08-21T08:36:19;5.55;;;2.67;;
23712;SDS011;12035;49.978;8.298;2022-08-21T08:41:30;5.75;;;3.13;;
23712;SDS011;12035;49.978;8.298;2022-08-21T08:46:30;6.80;;;3.03;;
23712;SDS011;12035;49.978;8.298;2022-08-21T08:51:34;5.38;;;2.90;;
23712;SDS011;12035;49.978;8.298;2022-08-21T08:56:42;6.50;;;3.30;;
23712;SDS011;12035;49.978;8.298;2022-08-21T09:01:40;5.20;;;2.75;;
23712;SDS011;12035;49.978;8.298;2022-08-21T09:06:42;4.72;;;2.58;;
23712;SDS011;12035;49.978;8.298;2022-08-21T09:11:59;5.43;;;2.72;;
23712;SDS011;12035;49.978;8.298;2022-08-21T09:17:04;4.75;;;2.35;;
23712;SDS011;12035;49.978;8.298;2022-08-21T09:22:19;5.15;;;2.45;;
23712;SDS011;12035;49.978;8.298;2022-08-21T09:27:28;4.72;;;2.30;;
23712;SDS011;12035;49.978;8.298;2022-08-21T09:32:28;6.35;;;2.72;;
23712;SDS011;12035;49.978;8.298;2022-08-21T09:37:27;6.40;;;2.83;;
23712;SDS011;12035;49.978;8.298;2022-08-21T09:42:28;6.10;;;2.63;;
23712;SDS011;12035;49.978;8.298;2022-08-21T09:47:28;8.30;;;2.63;;
23712;SDS011;12035;49.978;8.298;2022-08-21T09:52:25;6.10;;;2.50;;
23712;SDS011;12035;49.978;8.298;2022-08-21T09:57:23;5.68;;;2.60;;
23712;SDS011;12035;49.978;8.298;2022-08-21T10:02:36;4.38;;;2.20;;
23712;SDS011;12035;49.978;8.298;2022-08-21T10:07:35;3.45;;;1.95;;
23712;SDS011;12035;49.978;8.298;2022-08-21T10:12:39;5.03;;;2.00;;
23712;SDS011;12035;49.978;8.298;2022-08-21T10:17:47;8.88;;;1.85;;
23712;SDS011;12035;49.978;8.298;2022-08-21T10:23:00;5.47;;;1.80;;
23712;SDS011;12035;49.978;8.298;2022-08-21T10:28:20;4.03;;;1.85;;
23712;SDS011;12035;49.978;8.298;2022-08-21T10:33:26;7.50;;;2.53;;
23712;SDS011;12035;49.978;8.298;2022-08-21T10:38:49;6.47;;;2.03;;
23712;SDS011;12035;49.978;8.298;2022-08-21T10:44:02;5.75;;;2.42;;
23712;SDS011;12035;49.978;8.298;2022-08-21T10:49:22;5.13;;;2.30;;
23712;SDS011;12035;49.978;8.298;2022-08-21T10:54:29;6.50;;;2.20;;
23712;SDS011;12035;49.978;8.298;2022-08-21T10:59:33;5.20;;;2.08;;
23712;SDS011;12035;49.978;8.298;2022-08-21T11:04:42;7.25;;;2.40;;
23712;SDS011;12035;49.978;8.298;2022-08-21T11:09:48;9.27;;;2.40;;
23712;SDS011;12035;49.978;8.298;2022-08-21T11:14:47;4.82;;;2.10;;
23712;SDS011;12035;49.978;8.298;2022-08-21T11:19:54;5.40;;;1.92;;
23712;SDS011;12035;49.978;8.298;2022-08-21T11:25:03;4.43;;;1.80;;
23712;SDS011;12035;49.978;8.298;2022-08-21T11:30:06;5.95;;;1.90;;
23712;SDS011;12035;49.978;8.298;2022-08-21T11:35:08;4.65;;;1.70;;
23712;SDS011;12035;49.978;8.298;2022-08-21T11:40:19;3.45;;;1.60;;
23712;SDS011;12035;49.978;8.298;2022-08-21T11:45:47;4.75;;;1.90;;
23712;SDS011;12035;49.978;8.298;2022-08-21T11:50:50;4.22;;;1.63;;
23712;SDS011;12035;49.978;8.298;2022-08-21T11:55:50;3.80;;;1.75;;
23712;SDS011;12035;49.978;8.298;2022-08-21T12:00:53;5.72;;;1.67;;
23712;SDS011;12035;49.978;8.298;2022-08-21T12:05:56;4.57;;;2.00;;
23712;SDS011;12035;49.978;8.298;2022-08-21T12:11:02;5.85;;;2.08;;
23712;SDS011;12035;49.978;8.298;2022-08-21T12:16:07;6.80;;;2.00;;
23712;SDS011;12035;49.978;8.298;2022-08-21T12:21:21;4.57;;;1.88;;
23712;SDS011;12035;49.978;8.298;2022-08-21T12:26:23;2.95;;;1.45;;
23712;SDS011;12035;49.978;8.298;2022-08-21T12:31:25;4.22;;;1.50;;
23712;SDS011;12035;49.978;8.298;2022-08-21T12:36:26;5.68;;;2.10;;
23712;SDS011;12035;49.978;8.298;2022-08-21T12:41:43;4.72;;;1.88;;
23712;SDS011;12035;49.978;8.298;2022-08-21T12:46:47;5.32;;;2.03;;
23712;SDS011;12035;49.978;8.298;2022-08-21T12:51:50;5.50;;;2.08;;
23712;SDS011;12035;49.978;8.298;2022-08-21T12:56:56;5.60;;;2.05;;
23712;SDS011;12035;49.978;8.298;2022-08-21T13:01:57;4.20;;;1.77;;
23712;SDS011;12035;49.978;8.298;2022-08-21T13:06:58;5.65;;;1.80;;
23712;SDS011;12035;49.978;8.298;2022-08-21T13:11:56;4.13;;;1.67;;
23712;SDS011;12035;49.978;8.298;2022-08-21T13:16:54;4.68;;;2.00;;
23712;SDS011;12035;49.978;8.298;2022-08-21T13:21:53;5.50;;;1.90;;
23712;SDS011;12035;49.978;8.298;2022-08-21T13:26:53;5.10;;;1.80;;
23712;SDS011;12035;49.978;8.298;2022-08-21T13:31:52;7.40;;;2.03;;
23712;SDS011;12035;49.978;8.298;2022-08-21T13:36:54;5.13;;;2.10;;
23712;SDS011;12035;49.978;8.298;2022-08-21T13:41:58;4.95;;;1.85;;
23712;SDS011;12035;49.978;8.298;2022-08-21T13:46:58;4.47;;;1.80;;
23712;SDS011;12035;49.978;8.298;2022-08-21T13:51:58;4.43;;;1.70;;
23712;SDS011;12035;49.978;8.298;2022-08-21T13:56:57;3.35;;;1.55;;
23712;SDS011;12035;49.978;8.298;2022-08-21T14:01:55;4.78;;;2.25;;
23712;SDS011;12035;49.978;8.298;2022-08-21T14:06:55;4.63;;;1.67;;
23712;SDS011;12035;49.978;8.298;2022-08-21T14:11:52;4.43;;;1.80;;
23712;SDS011;12035;49.978;8.298;2022-08-21T14:16:55;3.85;;;1.95;;
23712;SDS011;12035;49.978;8.298;2022-08-21T14:21:55;6.45;;;2.10;;
23712;SDS011;12035;49.978;8.298;2022-08-21T14:26:52;7.40;;;1.77;;
23712;SDS011;12035;49.978;8.298;2022-08-21T14:31:55;3.90;;;1.70;;
23712;SDS011;12035;49.978;8.298;2022-08-21T14:36:54;3.95;;;1.60;;
23712;SDS011;12035;49.978;8.298;2022-08-21T14:41:52;3.83;;;1.60;;
23712;SDS011;12035;49.978;8.298;2022-08-21T14:46:49;8.18;;;1.58;;
23712;SDS011;12035;49.978;8.298;2022-08-21T14:51:48;5.88;;;1.90;;
23712;SDS011;12035;49.978;8.298;2022-08-21T14:56:51;4.45;;;1.83;;
23712;SDS011;12035;49.978;8.298;2022-08-21T15:01:49;3.80;;;1.60;;
23712;SDS011;12035;49.978;8.298;2022-08-21T15:06:48;2.75;;;1.42;;
23712;SDS011;12035;49.978;8.298;2022-08-21T15:11:45;2.97;;;1.40;;
23712;SDS011;12035;49.978;8.298;2022-08-21T15:16:43;3.65;;;1.50;;
23712;SDS011;12035;49.978;8.298;2022-08-21T15:21:40;5.88;;;1.50;;
23712;SDS011;12035;49.978;8.298;2022-08-21T15:26:38;4.68;;;1.48;;
23712;SDS011;12035;49.978;8.298;2022-08-21T15:31:36;3.58;;;1.55;;
23712;SDS011;12035;49.978;8.298;2022-08-21T15:36:46;2.25;;;1.30;;
23712;SDS011;12035;49.978;8.298;2022-08-21T15:41:44;3.95;;;1.80;;
23712;SDS011;12035;49.978;8.298;2022-08-21T15:46:42;3.63;;;1.58;;
23712;SDS011;12035;49.978;8.298;2022-08-21T15:51:40;4.32;;;1.50;;
23712;SDS011;12035;49.978;8.298;2022-08-21T15:56:38;3.08;;;1.23;;
23712;SDS011;12035;49.978;8.298;2022-08-21T16:01:38;3.38;;;1.40;;
23712;SDS011;12035;49.978;8.298;2022-08-21T16:06:35;2.97;;;1.35;;
23712;SDS011;12035;49.978;8.298;2022-08-21T16:11:33;4.75;;;1.65;;
23712;SDS011;12035;49.978;8.298;2022-08-21T16:16:30;5.22;;;2.17;;
23712;SDS011;12035;49.978;8.298;2022-08-21T16:21:31;8.80;;;1.77;;
23712;SDS011;12035;49.978;8.298;2022-08-21T16:26:28;3.90;;;1.52;;
23712;SDS011;12035;49.978;8.298;2022-08-21T16:31:26;5.65;;;2.00;;
23712;SDS011;12035;49.978;8.298;2022-08-21T16:36:23;3.33;;;1.45;;
23712;SDS011;12035;49.978;8.298;2022-08-21T16:41:23;4.20;;;1.55;;
23712;SDS011;12035;49.978;8.298;2022-08-21T16:46:24;2.58;;;1.30;;
23712;SDS011;12035;49.978;8.298;2022-08-21T16:51:22;2.97;;;1.33;;
23712;SDS011;12035;49.978;8.298;2022-08-21T16:56:19;3.80;;;1.50;;
23712;SDS011;12035;49.978;8.298;2022-08-21T17:01:24;4.43;;;1.50;;
23712;SDS011;12035;49.978;8.298;2022-08-21T17:06:24;5.38;;;1.70;;
23712;SDS011;12035;49.978;8.298;2022-08-21T17:11:26;5.18;;;1.73;;
23712;SDS011;12035;49.978;8.298;2022-08-21T17:16:27;4.55;;;1.80;;
23712;SDS011;12035;49.978;8.298;2022-08-21T17:21:25;3.10;;;1.27;;
23712;SDS011;12035;49.978;8.298;2022-08-21T17:26:22;3.72;;;1.60;;
23712;SDS011;12035;49.978;8.298;2022-08-21T17:31:20;3.75;;;1.50;;
23712;SDS011;12035;49.978;8.298;2022-08-21T17:36:19;5.97;;;1.70;;
23712;SDS011;12035;49.978;8.298;2022-08-21T17:41:19;6.28;;;2.10;;
23712;SDS011;12035;49.978;8.298;2022-08-21T17:46:18;2.42;;;1.27;;
23712;SDS011;12035;49.978;8.298;2022-08-21T17:51:20;4.05;;;1.48;;
23712;SDS011;12035;49.978;8.298;2022-08-21T17:56:18;5.72;;;2.10;;
23712;SDS011;12035;49.978;8.298;2022-08-21T18:01:16;5.63;;;1.58;;
23712;SDS011;12035;49.978;8.298;2022-08-21T18:06:14;3.08;;;1.60;;
23712;SDS011;12035;49.978;8.298;2022-08-21T18:11:13;2.88;;;1.42;;
23712;SDS011;12035;49.978;8.298;2022-08-21T18:16:12;3.50;;;1.30;;
23712;SDS011;12035;49.978;8.298;2022-08-21T18:21:13;2.53;;;1.25;;
23712;SDS011;12035;49.978;8.298;2022-08-21T18:26:13;2.75;;;1.20;;
23712;SDS011;12035;49.978;8.298;2022-08-21T18:31:16;3.23;;;1.40;;
23712;SDS011;12035;49.978;8.298;2022-08-21T18:36:13;2.33;;;1.02;;
23712;SDS011;12035;49.978;8.298;2022-08-21T18:41:10;1.75;;;0.80;;
23712;SDS011;12035;49.978;8.298;2022-08-21T18:46:09;3.78;;;1.25;;
23712;SDS011;12035;49.978;8.298;2022-08-21T18:51:06;2.75;;;1.40;;
23712;SDS011;12035;49.978;8.298;2022-08-21T18:56:05;3.47;;;1.10;;
23712;SDS011;12035;49.978;8.298;2022-08-21T19:01:04;4.22;;;0.93;;
23712;SDS011;12035;49.978;8.298;2022-08-21T19:06:01;2.80;;;1.00;;
23712;SDS011;12035;49.978;8.298;2022-08-21T19:10:58;2.47;;;1.30;;
23712;SDS011;12035;49.978;8.298;2022-08-21T19:15:56;1.95;;;1.00;;
23712;SDS011;12035;49.978;8.298;2022-08-21T19:20:59;3.47;;;1.27;;
23712;SDS011;12035;49.978;8.298;2022-08-21T19:25:57;2.08;;;1.27;;
23712;SDS011;12035;49.978;8.298;2022-08-21T19:30:58;3.45;;;1.10;;
23712;SDS011;12035;49.978;8.298;2022-08-21T19:36:01;2.67;;;1.20;;
23712;SDS011;12035;49.978;8.298;2022-08-21T19:40:59;5.07;;;0.98;;
23712;SDS011;12035;49.978;8.298;2022-08-21T19:45:58;3.08;;;1.40;;
23712;SDS011;12035;49.978;8.298;2022-08-21T19:50:55;3.78;;;1.30;;
23712;SDS011;12035;49.978;8.298;2022-08-21T19:55:55;2.55;;;1.05;;
23712;SDS011;12035;49.978;8.298;2022-08-21T20:00:52;3.55;;;1.25;;
23712;SDS011;12035;49.978;8.298;2022-08-21T20:05:49;2.15;;;1.20;;
23712;SDS011;12035;49.978;8.298;2022-08-21T20:10:46;2.70;;;1.50;;
23712;SDS011;12035;49.978;8.298;2022-08-21T20:15:45;2.30;;;1.25;;
23712;SDS011;12035;49.978;8.298;2022-08-21T20:20:44;3.40;;;1.15;;
23712;SDS011;12035;49.978;8.298;2022-08-21T20:25:42;3.45;;;1.90;;
23712;SDS011;12035;49.978;8.298;2022-08-21T20:30:41;3.63;;;1.20;;
23712;SDS011;12035;49.978;8.298;2022-08-21T20:35:40;4.18;;;1.90;;
23712;SDS011;12035;49.978;8.298;2022-08-21T20:40:42;1.73;;;1.08;;
23712;SDS011;12035;49.978;8.298;2022-08-21T20:45:40;4.88;;;1.42;;
23712;SDS011;12035;49.978;8.298;2022-08-21T20:50:39;2.70;;;1.20;;
23712;SDS011;12035;49.978;8.298;2022-08-21T20:55:44;2.08;;;1.05;;
23712;SDS011;12035;49.978;8.298;2022-08-21T21:00:43;3.25;;;1.70;;
23712;SDS011;12035;49.978;8.298;2022-08-21T21:05:45;1.98;;;1.33;;
23712;SDS011;12035;49.978;8.298;2022-08-21T21:10:48;2.50;;;1.08;;
23712;SDS011;12035;49.978;8.298;2022-08-21T21:15:50;3.95;;;1.08;;
23712;SDS011;12035;49.978;8.298;2022-08-21T21:20:55;2.05;;;1.10;;
23712;SDS011;12035;49.978;8.298;2022-08-21T21:26:02;1.83;;;1.00;;
23712;SDS011;12035;49.978;8.298;2022-08-21T21:31:06;4.33;;;1.20;;
23712;SDS011;12035;49.978;8.298;2022-08-21T21:36:07;5.40;;;1.30;;
23712;SDS011;12035;49.978;8.298;2022-08-21T21:41:20;3.13;;;0.90;;
23712;SDS011;12035;49.978;8.298;2022-08-21T21:46:30;2.17;;;1.10;;
23712;SDS011;12035;49.978;8.298;2022-08-21T21:51:48;4.83;;;1.50;;
23712;SDS011;12035;49.978;8.298;2022-08-21T21:56:59;2.15;;;1.00;;
23712;SDS011;12035;49.978;8.298;2022-08-21T22:02:09;2.95;;;0.98;;
23712;SDS011;12035;49.978;8.298;2022-08-21T22:07:21;2.30;;;1.10;;
23712;SDS011;12035;49.978;8.298;2022-08-21T22:12:31;2.33;;;1.10;;
23712;SDS011;12035;49.978;8.298;2022-08-21T22:17:39;2.67;;;1.00;;
23712;SDS011;12035;49.978;8.298;2022-08-21T22:22:44;3.22;;;1.23;;
23712;SDS011;12035;49.978;8.298;2022-08-21T22:27:42;2.10;;;0.88;;
23712;SDS011;12035;49.978;8.298;2022-08-21T22:32:41;2.55;;;0.88;;
23712;SDS011;12035;49.978;8.298;2022-08-21T22:37:43;2.90;;;0.90;;
23712;SDS011;12035;49.978;8.298;2022-08-21T22:42:44;3.42;;;1.00;;
23712;SDS011;12035;49.978;8.298;2022-08-21T22:47:54;1.30;;;0.80;;
23712;SDS011;12035;49.978;8.298;2022-08-21T22:53:01;3.33;;;1.10;;
23712;SDS011;12035;49.978;8.298;2022-08-21T22:58:04;1.90;;;0.60;;
23712;SDS011;12035;49.978;8.298;2022-08-21T23:03:06;2.72;;;0.70;;
23712;SDS011;12035;49.978;8.298;2022-08-21T23:08:13;3.17;;;1.30;;
23712;SDS011;12035;49.978;8.298;2022-08-21T23:13:19;2.03;;;0.80;;
23712;SDS011;12035;49.978;8.298;2022-08-21T23:18:17;2.47;;;0.70;;
23712;SDS011;12035;49.978;8.298;2022-08-21T23:23:24;1.77;;;0.90;;
23712;SDS011;12035;49.978;8.298;2022-08-21T23:28:33;3.78;;;1.05;;
23712;SDS011;12035;49.978;8.298;2022-08-21T23:33:51;1.73;;;0.77;;
23712;SDS011;12035;49.978;8.298;2022-08-21T23:39:08;3.95;;;0.85;;
23712;SDS011;12035;49.978;8.298;2022-08-21T23:44:19;2.05;;;1.00;;
23712;SDS011;12035;49.978;8.298;2022-08-21T23:49:35;4.18;;;0.90;;
23712;SDS011;12035;49.978;8.298;2022-08-21T23:54:47;2.05;;;0.90;;
23712;SDS011;12035;49.978;8.298;2022-08-21T23:59:57;3.90;;;0.93;;
